createdAt,value
2023-07-03T00:01:17.800Z,57.70
2023-07-03T00:03:19.591Z,57.70
2023-07-03T00:05:21.903Z,57.70
2023-07-03T00:07:23.769Z,57.70
2023-07-03T00:09:25.535Z,57.70
2023-07-03T00:11:27.388Z,57.70
2023-07-03T00:13:29.228Z,57.70
2023-07-03T00:15:31.312Z,57.70
2023-07-03T00:17:33.171Z,57.70
2023-07-03T00:19:34.970Z,57.60
2023-07-03T00:21:36.718Z,57.60
2023-07-03T00:23:38.596Z,57.60
2023-07-03T00:25:41.685Z,57.60
2023-07-03T00:27:43.865Z,57.60
2023-07-03T00:29:45.628Z,57.50
2023-07-03T00:31:47.481Z,57.60
2023-07-03T00:33:49.278Z,57.50
2023-07-03T00:35:51.321Z,57.50
2023-07-03T00:37:54.735Z,57.50
2023-07-03T00:39:56.723Z,57.50
2023-07-03T00:41:58.497Z,57.50
2023-07-03T00:44:00.318Z,57.40
2023-07-03T00:46:02.184Z,57.40
2023-07-03T00:48:04.399Z,57.40
2023-07-03T00:50:06.506Z,57.40
2023-07-03T00:52:09.042Z,57.30
2023-07-03T00:54:10.783Z,57.30
2023-07-03T00:56:12.730Z,57.20
2023-07-03T00:58:14.617Z,57.20
2023-07-03T01:00:17.721Z,57.20
2023-07-03T01:02:24.427Z,57.20
2023-07-03T01:04:32.628Z,57.10
2023-07-03T01:06:37.937Z,57.10
2023-07-03T01:08:40.359Z,57.10
2023-07-03T01:10:42.405Z,57.10
2023-07-03T01:12:45.980Z,57.00
2023-07-03T01:14:48.243Z,57.00
2023-07-03T01:16:50.918Z,57.00
2023-07-03T01:18:57.915Z,57.00
2023-07-03T01:21:03.619Z,57.00
2023-07-03T01:23:08.026Z,57.00
2023-07-03T01:25:12.545Z,57.00
2023-07-03T01:27:16.531Z,57.00
2023-07-03T01:29:18.596Z,57.00
2023-07-03T01:31:21.456Z,57.00
2023-07-03T01:33:25.922Z,57.00
2023-07-03T01:35:28.042Z,57.00
2023-07-03T01:37:31.543Z,57.00
2023-07-03T01:39:34.157Z,57.50
2023-07-03T01:41:36.869Z,57.00
2023-07-03T01:43:39.700Z,56.90
2023-07-03T01:45:46.452Z,56.90
2023-07-03T01:47:48.825Z,56.90
2023-07-03T01:49:50.759Z,56.90
2023-07-03T01:51:59.632Z,56.90
2023-07-03T01:54:10.299Z,56.90
2023-07-03T01:56:30.617Z,56.90
2023-07-03T01:58:32.501Z,56.90
2023-07-03T02:00:40.150Z,56.90
2023-07-03T02:04:48.642Z,56.30
2023-07-03T02:06:51.098Z,56.80
2023-07-03T02:08:53.757Z,56.80
2023-07-03T02:10:56.788Z,56.70
2023-07-03T02:12:58.678Z,56.80
2023-07-03T02:15:01.179Z,56.80
2023-07-03T02:17:03.732Z,56.80
2023-07-03T02:19:05.957Z,56.70
2023-07-03T02:21:08.795Z,56.70
2023-07-03T02:23:10.635Z,56.70
2023-07-03T02:25:17.765Z,56.70
2023-07-03T02:27:19.586Z,56.60
2023-07-03T02:29:21.540Z,56.70
2023-07-03T02:31:23.486Z,56.70
2023-07-03T02:33:25.319Z,56.70
2023-07-03T02:35:27.161Z,57.30
2023-07-03T02:37:28.947Z,56.60
2023-07-03T02:39:30.835Z,56.50
2023-07-03T02:41:32.928Z,56.60
2023-07-03T02:43:34.771Z,56.60
2023-07-03T02:45:40.095Z,56.60
2023-07-03T02:47:43.830Z,56.60
2023-07-03T02:49:48.693Z,56.60
2023-07-03T02:51:50.566Z,56.60
2023-07-03T02:53:52.566Z,56.60
2023-07-03T02:55:55.041Z,56.60
2023-07-03T02:57:57.804Z,56.60
2023-07-03T03:00:00.445Z,56.50
2023-07-03T03:02:02.293Z,56.50
2023-07-03T03:04:05.706Z,56.50
2023-07-03T03:06:07.564Z,56.50
2023-07-03T03:08:09.607Z,56.50
2023-07-03T03:10:11.365Z,56.50
2023-07-03T03:12:13.303Z,56.50
2023-07-03T03:14:15.757Z,56.40
2023-07-03T03:16:17.608Z,56.40
2023-07-03T03:18:19.496Z,56.30
2023-07-03T03:20:21.381Z,56.30
2023-07-03T03:22:23.176Z,56.40
2023-07-03T03:24:26.002Z,56.30
2023-07-03T03:26:27.953Z,56.30
2023-07-03T03:28:29.897Z,56.40
2023-07-03T03:30:32.170Z,56.30
2023-07-03T03:32:34.202Z,56.30
2023-07-03T03:34:36.039Z,56.40
2023-07-03T03:36:38.366Z,56.30
2023-07-03T03:38:40.173Z,56.30
2023-07-03T03:40:43.634Z,56.40
2023-07-03T03:42:45.599Z,56.40
2023-07-03T03:44:48.153Z,56.30
2023-07-03T03:46:52.489Z,56.30
2023-07-03T03:48:54.926Z,56.30
2023-07-03T03:50:57.306Z,56.40
2023-07-03T03:52:59.870Z,56.30
2023-07-03T03:55:01.843Z,56.30
2023-07-03T03:57:03.805Z,56.30
2023-07-03T03:59:05.599Z,56.30
2023-07-03T04:01:07.437Z,56.30
2023-07-03T04:03:09.202Z,56.30
2023-07-03T04:05:11.181Z,56.30
2023-07-03T04:07:13.116Z,56.30
2023-07-03T04:09:14.945Z,56.30
2023-07-03T04:11:16.745Z,56.30
2023-07-03T04:13:18.596Z,56.20
2023-07-03T04:15:20.416Z,56.20
2023-07-03T04:17:22.274Z,56.30
2023-07-03T04:19:24.320Z,56.20
2023-07-03T04:21:26.205Z,56.20
2023-07-03T04:23:27.991Z,56.20
2023-07-03T04:25:29.910Z,56.20
2023-07-03T04:27:31.706Z,56.20
2023-07-03T04:29:33.541Z,56.20
2023-07-03T04:31:35.341Z,56.20
2023-07-03T04:33:37.146Z,56.20
2023-07-03T04:35:39.222Z,56.10
2023-07-03T04:37:41.052Z,56.20
2023-07-03T04:39:42.836Z,56.10
2023-07-03T04:41:44.656Z,56.10
2023-07-03T04:43:46.533Z,56.10
2023-07-03T04:45:49.886Z,56.00
2023-07-03T04:47:52.319Z,56.00
2023-07-03T04:49:54.367Z,56.10
2023-07-03T04:51:56.344Z,56.10
2023-07-03T04:53:58.771Z,56.10
2023-07-03T04:56:00.522Z,56.10
2023-07-03T04:58:02.470Z,56.00
2023-07-03T05:00:04.448Z,56.10
2023-07-03T05:02:06.374Z,56.10
2023-07-03T05:04:08.276Z,56.10
2023-07-03T05:06:11.090Z,56.00
2023-07-03T05:08:12.852Z,56.00
2023-07-03T05:10:16.044Z,56.10
2023-07-03T05:12:17.788Z,56.10
2023-07-03T05:14:19.646Z,56.10
2023-07-03T05:16:21.493Z,56.60
2023-07-03T05:18:23.354Z,56.00
2023-07-03T05:20:25.415Z,56.10
2023-07-03T05:22:27.286Z,56.00
2023-07-03T05:24:29.054Z,56.00
2023-07-03T05:26:30.882Z,56.10
2023-07-03T05:28:33.022Z,56.00
2023-07-03T05:30:35.246Z,56.00
2023-07-03T05:32:37.032Z,56.00
2023-07-03T05:34:38.922Z,56.00
2023-07-03T05:36:40.695Z,56.00
2023-07-03T05:38:42.564Z,56.00
2023-07-03T05:40:44.358Z,56.00
2023-07-03T05:42:46.130Z,56.00
2023-07-03T05:44:47.946Z,56.00
2023-07-03T05:46:50.805Z,56.60
2023-07-03T05:48:52.578Z,56.00
2023-07-03T05:50:54.360Z,55.50
2023-07-03T05:52:56.139Z,56.00
2023-07-03T05:54:58.000Z,56.00
2023-07-03T05:57:00.517Z,56.00
2023-07-03T05:59:02.344Z,56.00
2023-07-03T06:01:04.129Z,55.90
2023-07-03T06:03:06.166Z,55.90
2023-07-03T06:05:08.582Z,55.90
2023-07-03T06:07:10.457Z,56.50
2023-07-03T06:09:12.259Z,56.50
2023-07-03T06:11:14.082Z,55.90
2023-07-03T06:13:16.197Z,55.80
2023-07-03T06:15:18.064Z,55.80
2023-07-03T06:17:19.962Z,55.70
2023-07-03T06:19:21.880Z,55.70
2023-07-03T06:21:23.638Z,55.70
2023-07-03T06:23:25.457Z,55.70
2023-07-03T06:25:27.273Z,55.70
2023-07-03T06:27:29.112Z,55.80
2023-07-03T06:29:30.854Z,55.70
2023-07-03T06:31:32.845Z,55.70
2023-07-03T06:33:34.719Z,55.70
2023-07-03T06:35:36.609Z,55.70
2023-07-03T06:37:38.406Z,55.70
2023-07-03T06:39:40.298Z,55.70
2023-07-03T06:41:42.068Z,55.60
2023-07-03T06:43:43.886Z,55.70
2023-07-03T06:45:45.648Z,55.60
2023-07-03T06:47:47.511Z,55.60
2023-07-03T06:49:49.259Z,55.70
2023-07-03T06:51:51.271Z,55.60
2023-07-03T06:53:53.068Z,55.60
2023-07-03T06:55:59.064Z,55.60
2023-07-03T06:58:01.073Z,55.60
2023-07-03T07:00:03.249Z,55.60
2023-07-03T07:02:06.693Z,55.80
2023-07-03T07:04:08.724Z,55.70
2023-07-03T07:06:11.974Z,56.20
2023-07-03T07:08:13.969Z,55.60
2023-07-03T07:10:15.790Z,55.60
2023-07-03T07:12:17.610Z,55.90
2023-07-03T07:14:19.382Z,58.90
2023-07-03T07:16:23.673Z,59.10
2023-07-03T07:20:27.689Z,54.80
2023-07-03T07:22:29.773Z,55.40
2023-07-03T07:24:31.643Z,55.20
2023-07-03T07:26:33.654Z,55.10
2023-07-03T07:28:35.492Z,55.10
2023-07-03T07:30:38.256Z,55.00
2023-07-03T07:32:40.182Z,55.20
2023-07-03T07:34:41.967Z,55.10
2023-07-03T07:36:43.813Z,55.30
2023-07-03T07:38:45.557Z,55.60
2023-07-03T07:40:47.403Z,55.10
2023-07-03T07:42:49.204Z,54.90
2023-07-03T07:44:50.993Z,54.70
2023-07-03T07:46:52.880Z,54.60
2023-07-03T07:48:54.879Z,54.70
2023-07-03T07:50:56.676Z,54.90
2023-07-03T07:52:58.479Z,54.90
2023-07-03T07:55:00.418Z,54.70
2023-07-03T07:57:02.340Z,54.90
2023-07-03T07:59:04.096Z,54.90
2023-07-03T08:01:06.382Z,54.70
2023-07-03T08:03:09.487Z,54.60
2023-07-03T08:05:11.687Z,54.70
2023-07-03T08:07:13.673Z,54.50
2023-07-03T08:09:15.580Z,54.50
2023-07-03T08:11:17.408Z,54.30
2023-07-03T08:13:19.227Z,54.50
2023-07-03T08:15:21.096Z,54.20
2023-07-03T08:17:22.973Z,54.40
2023-07-03T08:19:24.753Z,54.40
2023-07-03T08:21:26.626Z,54.40
2023-07-03T08:23:28.595Z,54.20
2023-07-03T08:25:30.394Z,54.10
2023-07-03T08:27:32.136Z,54.20
2023-07-03T08:29:34.000Z,54.10
2023-07-03T08:31:35.793Z,54.20
2023-07-03T08:33:37.745Z,54.30
2023-07-03T08:37:44.650Z,54.00
2023-07-03T08:39:46.402Z,54.00
2023-07-03T08:43:53.078Z,53.70
2023-07-03T08:45:54.883Z,54.00
2023-07-03T08:47:57.690Z,54.00
2023-07-03T08:50:01.108Z,54.00
2023-07-03T08:52:03.758Z,54.10
2023-07-03T08:54:17.213Z,54.00
2023-07-03T08:56:21.562Z,54.00
2023-07-03T08:58:23.476Z,53.90
2023-07-03T09:00:25.418Z,54.10
2023-07-03T09:02:33.071Z,53.90
2023-07-03T09:04:34.917Z,54.10
2023-07-03T09:06:41.467Z,54.00
2023-07-03T09:09:12.828Z,53.90
2023-07-03T09:11:17.069Z,53.70
2023-07-03T09:13:21.638Z,53.70
2023-07-03T09:15:29.217Z,53.70
2023-07-03T09:17:31.354Z,53.90
2023-07-03T09:19:33.279Z,53.80
2023-07-03T09:21:36.384Z,53.80
2023-07-03T09:23:41.088Z,53.70
2023-07-03T09:26:04.891Z,53.80
2023-07-03T09:28:08.312Z,53.90
2023-07-03T09:30:12.846Z,53.70
2023-07-03T09:32:30.066Z,53.70
2023-07-03T09:34:51.024Z,53.90
2023-07-03T09:36:56.704Z,53.70
2023-07-03T09:38:58.541Z,53.90
2023-07-03T09:41:03.529Z,53.80
2023-07-03T09:43:12.582Z,53.90
2023-07-03T09:45:20.280Z,53.70
2023-07-03T09:47:25.727Z,53.80
2023-07-03T09:49:27.838Z,53.80
2023-07-03T09:51:30.517Z,53.70
2023-07-03T09:53:32.630Z,53.90
2023-07-03T09:55:35.574Z,53.80
2023-07-03T09:57:38.394Z,53.80
2023-07-03T09:59:40.169Z,53.60
2023-07-03T10:03:46.800Z,53.80
2023-07-03T10:07:56.369Z,53.90
2023-07-03T10:12:09.328Z,54.00
2023-07-03T10:14:15.149Z,53.70
2023-07-03T10:16:17.072Z,53.90
2023-07-03T10:18:21.646Z,53.70
2023-07-03T10:20:40.723Z,53.60
2023-07-03T10:22:43.171Z,53.70
2023-07-03T10:24:45.308Z,53.90
2023-07-03T10:26:52.314Z,53.70
2023-07-03T10:28:57.556Z,54.00
2023-07-03T10:31:01.830Z,53.80
2023-07-03T10:33:11.209Z,53.60
2023-07-03T10:35:39.554Z,53.70
2023-07-03T10:37:47.746Z,54.00
2023-07-03T10:39:54.317Z,53.60
2023-07-03T10:41:58.026Z,53.60
2023-07-03T10:44:20.063Z,53.60
2023-07-03T10:46:44.698Z,53.70
2023-07-03T10:48:47.658Z,53.80
2023-07-03T10:50:55.626Z,53.80
2023-07-03T10:53:01.442Z,53.80
2023-07-03T10:55:20.137Z,53.80
2023-07-03T10:57:33.258Z,53.90
2023-07-03T10:59:39.537Z,54.20
2023-07-03T11:01:44.297Z,54.00
2023-07-03T11:04:23.035Z,54.00
2023-07-03T11:06:26.308Z,54.80
2023-07-03T11:08:34.236Z,54.10
2023-07-03T11:10:45.354Z,55.00
2023-07-03T11:12:53.120Z,54.30
2023-07-03T11:15:13.489Z,54.20
2023-07-03T11:17:21.137Z,54.50
2023-07-03T11:24:00.066Z,54.30
2023-07-03T11:28:29.513Z,54.20
2023-07-03T11:30:32.355Z,54.20
2023-07-03T11:32:34.821Z,54.20
2023-07-03T11:36:51.026Z,54.20
2023-07-03T11:45:26.745Z,54.20
2023-07-03T11:47:32.595Z,54.20
2023-07-03T11:49:38.657Z,54.30
2023-07-03T11:51:40.461Z,54.20
2023-07-03T11:53:50.204Z,54.20
2023-07-03T11:55:52.214Z,54.10
2023-07-03T11:58:14.630Z,54.20
2023-07-03T12:00:23.956Z,54.30
2023-07-03T12:02:27.662Z,54.20
2023-07-03T12:04:47.746Z,54.20
2023-07-03T12:06:50.838Z,54.10
2023-07-03T12:08:52.609Z,54.20
2023-07-03T12:10:58.791Z,54.10
2023-07-03T12:13:19.041Z,54.20
2023-07-03T12:15:20.898Z,54.20
2023-07-03T12:17:28.697Z,54.00
2023-07-03T12:19:31.768Z,54.00
2023-07-03T12:21:38.254Z,54.00
2023-07-03T12:23:42.239Z,54.00
2023-07-03T12:25:44.006Z,54.00
2023-07-03T12:27:46.688Z,54.00
2023-07-03T12:29:49.356Z,54.10
2023-07-03T12:31:55.267Z,54.00
2023-07-03T12:33:58.509Z,54.00
2023-07-03T12:36:00.366Z,54.00
2023-07-03T12:38:09.002Z,54.00
2023-07-03T12:40:12.108Z,54.00
2023-07-03T12:42:22.107Z,54.10
2023-07-03T12:44:23.940Z,54.10
2023-07-03T12:46:29.931Z,54.10
2023-07-03T12:48:31.827Z,54.00
2023-07-03T12:50:35.247Z,54.00
2023-07-03T12:52:37.040Z,54.00
2023-07-03T12:54:38.823Z,54.00
2023-07-03T12:56:41.033Z,54.00
2023-07-03T12:58:42.933Z,54.00
2023-07-03T13:00:45.085Z,54.00
2023-07-03T13:02:47.059Z,54.00
2023-07-03T13:04:58.843Z,54.00
2023-07-03T13:07:01.656Z,54.00
2023-07-03T13:09:04.351Z,54.00
2023-07-03T13:11:06.341Z,53.90
2023-07-03T13:13:26.281Z,53.90
2023-07-03T13:15:33.807Z,53.90
2023-07-03T13:17:37.142Z,54.00
2023-07-03T13:19:39.014Z,53.90
2023-07-03T13:21:41.079Z,53.90
2023-07-03T13:23:44.557Z,53.90
2023-07-03T13:25:51.222Z,53.90
2023-07-03T13:27:53.346Z,53.90
2023-07-03T13:30:14.827Z,53.90
2023-07-03T13:32:18.210Z,54.00
2023-07-03T13:34:21.629Z,54.10
2023-07-03T13:36:25.256Z,54.00
2023-07-03T13:38:29.108Z,54.00
2023-07-03T13:40:30.874Z,54.00
2023-07-03T13:42:32.766Z,54.00
2023-07-03T13:44:34.582Z,54.00
2023-07-03T13:46:36.823Z,54.00
2023-07-03T13:48:38.696Z,54.10
2023-07-03T13:50:40.502Z,54.00
2023-07-03T13:52:42.242Z,54.10
2023-07-03T13:54:44.054Z,54.10
2023-07-03T13:56:46.185Z,54.10
2023-07-03T13:58:48.049Z,54.10
2023-07-03T14:00:49.821Z,54.00
2023-07-03T14:02:51.801Z,54.10
2023-07-03T14:04:53.836Z,54.00
2023-07-03T14:06:55.690Z,54.10
2023-07-03T14:08:57.890Z,54.00
2023-07-03T14:10:59.755Z,54.00
2023-07-03T14:13:01.597Z,54.00
2023-07-03T14:15:32.854Z,54.00
2023-07-03T14:17:34.877Z,54.00
2023-07-03T14:19:36.677Z,54.00
2023-07-03T14:21:38.881Z,54.00
2023-07-03T14:23:40.785Z,53.90
2023-07-03T14:25:42.606Z,54.00
2023-07-03T14:27:44.383Z,53.90
2023-07-03T14:29:46.194Z,54.00
2023-07-03T14:31:50.075Z,54.00
2023-07-03T14:33:52.244Z,54.00
2023-07-03T14:35:54.031Z,54.00
2023-07-03T14:37:55.893Z,54.00
2023-07-03T14:39:58.396Z,54.00
2023-07-03T14:42:00.222Z,53.90
2023-07-03T14:44:02.295Z,54.00
2023-07-03T14:46:04.146Z,53.90
2023-07-03T14:48:05.988Z,53.90
2023-07-03T14:50:08.833Z,53.90
2023-07-03T14:52:10.899Z,54.00
2023-07-03T14:54:12.758Z,54.10
2023-07-03T14:56:14.586Z,54.10
2023-07-03T14:58:16.386Z,54.10
2023-07-03T15:00:18.264Z,54.00
2023-07-03T15:02:20.184Z,54.10
2023-07-03T15:04:22.152Z,54.10
2023-07-03T15:06:24.210Z,54.10
2023-07-03T15:08:25.959Z,54.10
2023-07-03T15:10:27.793Z,54.10
2023-07-03T15:12:29.591Z,54.10
2023-07-03T15:14:31.426Z,54.10
2023-07-03T15:16:33.925Z,54.00
2023-07-03T15:18:35.787Z,54.10
2023-07-03T15:20:39.434Z,54.10
2023-07-03T15:22:41.650Z,54.10
2023-07-03T15:24:43.421Z,54.10
2023-07-03T15:26:45.219Z,54.20
2023-07-03T15:28:47.517Z,54.10
2023-07-03T15:30:49.777Z,54.10
2023-07-03T15:32:52.413Z,54.10
2023-07-03T15:34:54.867Z,54.10
2023-07-03T15:36:56.668Z,54.10
2023-07-03T15:38:58.509Z,54.10
2023-07-03T15:41:00.409Z,54.10
2023-07-03T15:43:02.244Z,54.20
2023-07-03T15:45:04.147Z,54.10
2023-07-03T15:47:06.588Z,54.20
2023-07-03T15:49:08.617Z,54.20
2023-07-03T15:51:11.254Z,54.20
2023-07-03T15:53:13.033Z,54.10
2023-07-03T15:55:17.382Z,54.20
2023-07-03T15:57:20.496Z,54.10
2023-07-03T15:59:22.355Z,54.10
2023-07-03T16:01:25.440Z,54.10
2023-07-03T16:03:27.794Z,54.10
2023-07-03T16:05:29.549Z,54.10
2023-07-03T16:07:31.374Z,54.00
2023-07-03T16:09:33.133Z,54.10
2023-07-03T16:11:34.926Z,54.00
2023-07-03T16:13:36.887Z,54.00
2023-07-03T16:15:38.705Z,54.00
2023-07-03T16:17:40.490Z,54.00
2023-07-03T16:20:02.376Z,53.90
2023-07-03T16:22:04.327Z,53.90
2023-07-03T16:24:06.169Z,53.90
2023-07-03T16:26:08.030Z,53.90
2023-07-03T16:28:09.829Z,54.00
2023-07-03T16:30:11.783Z,53.90
2023-07-03T16:32:13.717Z,53.90
2023-07-03T16:34:15.504Z,54.00
2023-07-03T16:36:22.107Z,53.90
2023-07-03T16:38:23.874Z,53.90
2023-07-03T16:40:25.690Z,53.90
2023-07-03T16:42:27.453Z,53.80
2023-07-03T16:44:29.259Z,53.90
2023-07-03T16:46:31.399Z,53.90
2023-07-03T16:48:33.898Z,54.00
2023-07-03T16:50:35.682Z,53.90
2023-07-03T16:52:37.541Z,53.90
2023-07-03T16:54:39.315Z,53.90
2023-07-03T16:56:41.206Z,53.80
2023-07-03T16:58:43.967Z,53.80
2023-07-03T17:00:45.805Z,53.90
2023-07-03T17:02:47.719Z,53.80
2023-07-03T17:04:49.619Z,53.90
2023-07-03T17:06:51.404Z,53.80
2023-07-03T17:08:53.333Z,53.70
2023-07-03T17:10:55.347Z,53.80
2023-07-03T17:12:57.192Z,53.70
2023-07-03T17:14:58.971Z,53.70
2023-07-03T17:17:00.859Z,53.70
2023-07-03T17:19:02.680Z,53.70
2023-07-03T17:21:04.500Z,54.20
2023-07-03T17:23:06.297Z,53.60
2023-07-03T17:25:08.449Z,53.60
2023-07-03T17:27:10.208Z,53.70
2023-07-03T17:29:12.130Z,53.70
2023-07-03T17:31:13.917Z,53.60
2023-07-03T17:33:15.742Z,53.70
2023-07-03T17:35:17.539Z,53.60
2023-07-03T17:37:19.466Z,53.60
2023-07-03T17:39:21.250Z,53.70
2023-07-03T17:41:23.105Z,53.70
2023-07-03T17:43:24.909Z,53.70
2023-07-03T17:45:26.762Z,53.70
2023-07-03T17:47:28.689Z,53.70
2023-07-03T17:49:30.602Z,53.70
2023-07-03T17:51:35.002Z,53.80
2023-07-03T17:53:36.833Z,53.80
2023-07-03T17:55:40.215Z,53.90
2023-07-03T17:57:42.246Z,53.90
2023-07-03T17:59:44.010Z,53.90
2023-07-03T18:01:45.928Z,54.00
2023-07-03T18:03:47.833Z,53.80
2023-07-03T18:05:49.969Z,53.80
2023-07-03T18:07:51.913Z,53.90
2023-07-03T18:09:53.882Z,54.00
2023-07-03T18:11:55.651Z,54.00
2023-07-03T18:13:57.594Z,53.90
2023-07-03T18:15:59.714Z,53.90
2023-07-03T18:18:01.790Z,54.00
2023-07-03T18:20:03.839Z,54.10
2023-07-03T18:22:05.712Z,54.20
2023-07-03T18:24:07.524Z,54.10
2023-07-03T18:26:09.417Z,54.60
2023-07-03T18:28:11.213Z,55.00
2023-07-03T18:30:13.134Z,54.90
2023-07-03T18:32:14.882Z,55.60
2023-07-03T18:34:16.681Z,55.60
2023-07-03T18:36:18.727Z,55.40
2023-07-03T18:38:20.622Z,56.50
2023-07-03T18:40:22.372Z,56.00
2023-07-03T18:42:24.284Z,56.80
2023-07-03T18:44:26.126Z,56.00
2023-07-03T18:46:29.088Z,54.00
2023-07-03T18:48:30.904Z,55.20
2023-07-03T18:50:32.686Z,54.80
2023-07-03T18:52:34.487Z,55.60
2023-07-03T18:54:36.313Z,56.10
2023-07-03T18:56:38.074Z,56.20
2023-07-03T18:58:39.891Z,55.70
2023-07-03T19:00:41.662Z,55.70
2023-07-03T19:02:43.497Z,54.80
2023-07-03T19:04:45.364Z,54.90
2023-07-03T19:06:47.172Z,54.80
2023-07-03T19:08:49.159Z,54.30
2023-07-03T19:10:51.057Z,54.70
2023-07-03T19:12:52.836Z,54.50
2023-07-03T19:14:54.709Z,55.30
2023-07-03T19:16:56.570Z,56.10
2023-07-03T19:18:58.439Z,59.30
2023-07-03T19:21:00.228Z,57.60
2023-07-03T19:23:02.215Z,56.40
2023-07-03T19:25:04.198Z,55.50
2023-07-03T19:27:06.281Z,55.50
2023-07-03T19:29:08.221Z,56.50
2023-07-03T19:31:10.136Z,59.70
2023-07-03T19:33:11.908Z,53.00
2023-07-03T19:35:13.762Z,53.40
2023-07-03T19:37:15.528Z,54.10
2023-07-03T19:39:17.389Z,53.60
2023-07-03T19:41:19.210Z,53.50
2023-07-03T19:43:21.030Z,53.50
2023-07-03T19:45:22.807Z,53.90
2023-07-03T19:47:24.754Z,53.80
2023-07-03T19:49:26.603Z,54.10
2023-07-03T19:51:28.494Z,53.70
2023-07-03T19:53:30.940Z,53.80
2023-07-03T19:55:33.698Z,54.20
2023-07-03T19:57:35.511Z,53.80
2023-07-03T19:59:37.410Z,53.70
2023-07-03T20:01:39.257Z,54.10
2023-07-03T20:03:41.555Z,54.00
2023-07-03T20:05:43.458Z,54.00
2023-07-03T20:07:45.355Z,53.90
2023-07-03T20:09:47.144Z,53.80
2023-07-03T20:11:49.047Z,53.90
2023-07-03T20:13:51.032Z,53.70
2023-07-03T20:15:53.276Z,53.70
2023-07-03T20:17:55.257Z,54.00
2023-07-03T20:19:57.142Z,53.70
2023-07-03T20:21:58.923Z,53.80
2023-07-03T20:24:00.769Z,53.80
2023-07-03T20:26:02.975Z,53.90
2023-07-03T20:28:04.865Z,53.80
2023-07-03T20:30:07.027Z,53.80
2023-07-03T20:32:08.955Z,53.90
2023-07-03T20:34:10.843Z,53.80
2023-07-03T20:36:13.345Z,53.90
2023-07-03T20:38:16.032Z,54.00
2023-07-03T20:40:18.388Z,53.80
2023-07-03T20:42:20.183Z,54.10
2023-07-03T20:44:22.778Z,53.80
2023-07-03T20:46:25.574Z,54.00
2023-07-03T20:48:27.437Z,53.80
2023-07-03T20:50:29.170Z,53.80
2023-07-03T20:52:30.990Z,53.80
2023-07-03T20:54:32.846Z,53.80
2023-07-03T20:56:36.555Z,53.90
2023-07-03T20:58:39.057Z,53.80
2023-07-03T21:00:40.868Z,54.00
2023-07-03T21:02:42.710Z,53.80
2023-07-03T21:04:44.581Z,53.90
2023-07-03T21:06:46.560Z,53.80
2023-07-03T21:08:48.755Z,53.80
2023-07-03T21:10:57.499Z,53.80
2023-07-03T21:12:59.326Z,53.70
2023-07-03T21:15:01.140Z,53.80
2023-07-03T21:17:03.091Z,53.70
2023-07-03T21:19:07.362Z,53.90
2023-07-03T21:21:16.025Z,53.80
2023-07-03T21:23:17.825Z,53.90
2023-07-03T21:25:19.647Z,53.70
2023-07-03T21:27:21.475Z,53.70
2023-07-03T21:29:23.340Z,53.70
2023-07-03T21:31:29.362Z,53.70
2023-07-03T21:33:31.828Z,53.90
2023-07-03T21:35:33.618Z,53.70
2023-07-03T21:37:35.447Z,53.70
2023-07-03T21:39:37.258Z,53.70
2023-07-03T21:41:39.096Z,53.90
2023-07-03T21:43:40.846Z,53.80
2023-07-03T21:45:42.872Z,53.80
2023-07-03T21:47:47.630Z,53.80
2023-07-03T21:49:49.585Z,53.70
2023-07-03T21:51:53.295Z,53.60
2023-07-03T21:53:55.374Z,53.70
2023-07-03T21:56:04.265Z,53.70
2023-07-03T21:58:06.109Z,53.70
2023-07-03T22:00:08.534Z,53.60
2023-07-03T22:02:17.510Z,53.60
2023-07-03T22:04:19.270Z,53.60
2023-07-03T22:06:21.680Z,53.50
2023-07-03T22:08:24.212Z,53.50
2023-07-03T22:10:26.027Z,53.50
2023-07-03T22:12:27.796Z,53.50
2023-07-03T22:14:29.638Z,53.40
2023-07-03T22:16:31.446Z,53.30
2023-07-03T22:18:33.371Z,53.40
2023-07-03T22:20:35.200Z,53.40
2023-07-03T22:22:37.049Z,53.30
2023-07-03T22:24:38.825Z,53.30
2023-07-03T22:26:40.685Z,53.30
2023-07-03T22:28:42.566Z,53.30
2023-07-03T22:30:44.429Z,53.20
2023-07-03T22:32:46.296Z,53.30
2023-07-03T22:34:48.115Z,53.30
2023-07-03T22:36:49.870Z,53.20
2023-07-03T22:38:51.739Z,53.20
2023-07-03T22:40:53.499Z,53.30
2023-07-03T22:42:55.363Z,53.80
2023-07-03T22:44:57.155Z,53.10
2023-07-03T22:46:59.022Z,53.20
2023-07-03T22:49:04.307Z,53.20
2023-07-03T22:51:11.264Z,53.10
2023-07-03T22:53:13.227Z,53.10
2023-07-03T22:55:15.483Z,53.10
2023-07-03T22:57:17.265Z,53.10
2023-07-03T22:59:19.098Z,53.20
2023-07-03T23:01:20.876Z,53.20
2023-07-03T23:03:23.023Z,53.10
2023-07-03T23:05:24.857Z,53.20
2023-07-03T23:07:26.723Z,53.10
2023-07-03T23:09:28.628Z,53.10
2023-07-03T23:11:30.508Z,53.20
2023-07-03T23:13:32.325Z,53.20
2023-07-03T23:15:34.209Z,53.20
2023-07-03T23:17:35.981Z,53.30
2023-07-03T23:19:37.941Z,53.30
2023-07-03T23:21:39.846Z,53.20
2023-07-03T23:23:41.688Z,53.40
2023-07-03T23:25:43.512Z,53.20
2023-07-03T23:27:45.314Z,53.20
2023-07-03T23:29:47.620Z,53.30
2023-07-03T23:31:49.850Z,53.20
2023-07-03T23:33:51.796Z,53.20
2023-07-03T23:35:54.071Z,53.20
2023-07-03T23:37:55.852Z,53.10
2023-07-03T23:39:57.704Z,53.10
2023-07-03T23:41:59.492Z,53.30
2023-07-03T23:44:01.301Z,53.20
2023-07-03T23:46:03.181Z,53.20
2023-07-03T23:48:05.109Z,53.30
2023-07-03T23:50:07.115Z,53.30
2023-07-03T23:52:08.979Z,53.20
2023-07-03T23:54:10.782Z,53.30
2023-07-03T23:56:14.121Z,53.20
2023-07-03T23:58:16.003Z,53.20
